Eugenopolis, Brazil
Current Conditions -  °F | °C
As of 11:00 AM on Saturday 22 Nov 2014 (Local Time) from SBCP Reporting Station
Clear Clear  
Wind Chill: 90°   Ceiling: Unl
Heat Index: 93°   Visibility: 6mi
Dew Point: 68°   Wind: 6mph
Humidity: 49%   Direction: 60°ENE
Pressure: 29.91"   Gusts: NA
Location:  21.1°S, 42.19°W
Report Text: SBCP 221300Z 06005KT CAVOK 32/20 Q1013
Loading
Personal Weather Stations






























Interactive Weather Map New forecast layout! Learn more

10-Day Weather Forecast

Advertisements
Track Severe Weather on mobile